sensor_id;sensor_type;location;lat;lon;timestamp;pressure;altitude;pressure_sealevel;temperature;humidity
33075;BME280;19433;51.292;6.868;2023-07-31T00:00:11;99978.16;;;15.07;100.00
33075;BME280;19433;51.292;6.868;2023-07-31T00:02:37;99981.53;;;15.09;100.00
33075;BME280;19433;51.292;6.868;2023-07-31T00:05:03;99984.63;;;15.13;100.00
33075;BME280;19433;51.292;6.868;2023-07-31T00:07:28;99980.19;;;15.12;100.00
33075;BME280;19433;51.292;6.868;2023-07-31T00:09:53;99980.19;;;15.12;100.00
33075;BME280;19433;51.292;6.868;2023-07-31T00:12:20;99978.00;;;15.14;100.00
33075;BME280;19433;51.292;6.868;2023-07-31T00:14:45;99977.06;;;15.08;100.00
33075;BME280;19433;51.292;6.868;2023-07-31T00:17:11;99976.94;;;15.03;100.00
33075;BME280;19433;51.292;6.868;2023-07-31T00:19:36;99981.53;;;15.09;100.00
33075;BME280;19433;51.292;6.868;2023-07-31T00:22:01;99980.06;;;15.07;100.00
33075;BME280;19433;51.292;6.868;2023-07-31T00:24:27;99986.44;;;15.19;100.00
33075;BME280;19433;51.292;6.868;2023-07-31T00:26:52;99984.41;;;15.14;100.00
33075;BME280;19433;51.292;6.868;2023-07-31T00:29:18;99980.44;;;15.10;100.00
33075;BME280;19433;51.292;6.868;2023-07-31T00:31:43;99981.28;;;15.11;100.00
33075;BME280;19433;51.292;6.868;2023-07-31T00:34:08;99985.16;;;15.10;100.00
33075;BME280;19433;51.292;6.868;2023-07-31T00:36:33;99984.22;;;15.33;100.00
33075;BME280;19433;51.292;6.868;2023-07-31T00:38:59;99980.03;;;15.19;100.00
33075;BME280;19433;51.292;6.868;2023-07-31T00:41:24;99985.75;;;15.12;100.00
33075;BME280;19433;51.292;6.868;2023-07-31T00:43:49;99982.97;;;15.12;100.00
33075;BME280;19433;51.292;6.868;2023-07-31T00:46:15;99981.72;;;15.20;100.00
33075;BME280;19433;51.292;6.868;2023-07-31T00:48:40;99971.88;;;15.29;100.00
33075;BME280;19433;51.292;6.868;2023-07-31T00:51:07;99973.50;;;15.25;100.00
33075;BME280;19433;51.292;6.868;2023-07-31T00:53:33;99977.25;;;15.19;100.00
33075;BME280;19433;51.292;6.868;2023-07-31T00:55:59;99973.13;;;15.21;100.00
33075;BME280;19433;51.292;6.868;2023-07-31T00:58:24;99962.66;;;15.11;100.00
33075;BME280;19433;51.292;6.868;2023-07-31T01:00:49;99967.50;;;15.04;100.00
33075;BME280;19433;51.292;6.868;2023-07-31T01:03:16;99984.28;;;15.21;100.00
33075;BME280;19433;51.292;6.868;2023-07-31T01:06:23;99976.28;;;15.25;100.00
33075;BME280;19433;51.292;6.868;2023-07-31T01:09:17;99955.59;;;15.49;100.00
33075;BME280;19433;51.292;6.868;2023-07-31T01:11:57;99962.78;;;15.73;100.00
33075;BME280;19433;51.292;6.868;2023-07-31T01:14:22;99955.53;;;15.72;100.00
33075;BME280;19433;51.292;6.868;2023-07-31T01:16:48;99959.41;;;15.71;100.00
33075;BME280;19433;51.292;6.868;2023-07-31T01:19:15;99961.66;;;15.74;100.00
33075;BME280;19433;51.292;6.868;2023-07-31T01:24:58;99952.91;;;15.82;100.00
33075;BME280;19433;51.292;6.868;2023-07-31T01:27:30;99960.56;;;15.75;100.00
33075;BME280;19433;51.292;6.868;2023-07-31T01:30:16;99966.69;;;15.61;100.00
33075;BME280;19433;51.292;6.868;2023-07-31T01:32:43;99953.91;;;15.76;100.00
33075;BME280;19433;51.292;6.868;2023-07-31T01:35:10;99956.44;;;15.78;100.00
33075;BME280;19433;51.292;6.868;2023-07-31T01:37:35;99965.41;;;15.80;100.00
33075;BME280;19433;51.292;6.868;2023-07-31T01:40:01;99967.25;;;15.91;100.00
33075;BME280;19433;51.292;6.868;2023-07-31T01:42:26;99962.22;;;15.88;100.00
33075;BME280;19433;51.292;6.868;2023-07-31T01:44:51;99960.66;;;15.80;100.00
33075;BME280;19433;51.292;6.868;2023-07-31T01:47:17;99977.41;;;15.97;100.00
33075;BME280;19433;51.292;6.868;2023-07-31T01:49:42;99949.13;;;15.32;100.00
33075;BME280;19433;51.292;6.868;2023-07-31T01:52:07;99966.13;;;15.19;100.00
33075;BME280;19433;51.292;6.868;2023-07-31T01:54:32;99956.56;;;15.14;100.00
33075;BME280;19433;51.292;6.868;2023-07-31T01:56:58;99960.47;;;15.02;100.00
33075;BME280;19433;51.292;6.868;2023-07-31T01:59:24;99957.34;;;15.10;100.00
33075;BME280;19433;51.292;6.868;2023-07-31T02:01:49;99951.91;;;15.03;100.00
33075;BME280;19433;51.292;6.868;2023-07-31T02:04:14;99945.13;;;15.11;100.00
33075;BME280;19433;51.292;6.868;2023-07-31T02:06:39;99955.94;;;14.96;100.00
33075;BME280;19433;51.292;6.868;2023-07-31T02:09:05;99957.00;;;14.95;100.00
33075;BME280;19433;51.292;6.868;2023-07-31T02:11:30;99947.81;;;14.94;100.00
33075;BME280;19433;51.292;6.868;2023-07-31T02:13:55;99940.81;;;14.92;100.00
33075;BME280;19433;51.292;6.868;2023-07-31T02:16:21;99942.88;;;14.96;100.00
33075;BME280;19433;51.292;6.868;2023-07-31T02:18:46;99940.09;;;14.96;100.00
33075;BME280;19433;51.292;6.868;2023-07-31T02:21:11;99943.72;;;14.97;100.00
33075;BME280;19433;51.292;6.868;2023-07-31T02:23:36;99934.75;;;14.95;100.00
33075;BME280;19433;51.292;6.868;2023-07-31T02:26:02;99931.47;;;14.98;100.00
33075;BME280;19433;51.292;6.868;2023-07-31T02:28:28;99942.81;;;15.08;100.00
33075;BME280;19433;51.292;6.868;2023-07-31T02:30:53;99936.91;;;15.04;100.00
33075;BME280;19433;51.292;6.868;2023-07-31T02:33:19;99923.84;;;15.05;100.00
33075;BME280;19433;51.292;6.868;2023-07-31T02:35:44;99926.97;;;15.08;100.00
33075;BME280;19433;51.292;6.868;2023-07-31T02:38:09;99926.84;;;15.03;100.00
33075;BME280;19433;51.292;6.868;2023-07-31T02:40:35;99921.78;;;15.00;100.00
33075;BME280;19433;51.292;6.868;2023-07-31T02:43:00;99907.84;;;15.12;100.00
33075;BME280;19433;51.292;6.868;2023-07-31T02:45:25;99913.91;;;15.09;100.00
33075;BME280;19433;51.292;6.868;2023-07-31T02:47:51;99921.66;;;15.07;100.00
33075;BME280;19433;51.292;6.868;2023-07-31T02:50:16;99919.72;;;15.07;100.00
33075;BME280;19433;51.292;6.868;2023-07-31T02:52:41;99906.00;;;15.18;100.00
33075;BME280;19433;51.292;6.868;2023-07-31T02:55:07;99909.63;;;15.18;100.00
33075;BME280;19433;51.292;6.868;2023-07-31T02:57:32;99905.75;;;15.19;100.00
33075;BME280;19433;51.292;6.868;2023-07-31T02:59:57;99907.78;;;15.24;100.00
33075;BME280;19433;51.292;6.868;2023-07-31T03:02:23;99919.84;;;15.29;100.00
33075;BME280;19433;51.292;6.868;2023-07-31T03:04:48;99908.66;;;15.24;100.00
33075;BME280;19433;51.292;6.868;2023-07-31T03:07:13;99901.47;;;15.28;100.00
33075;BME280;19433;51.292;6.868;2023-07-31T03:09:39;99906.88;;;15.35;100.00
33075;BME280;19433;51.292;6.868;2023-07-31T03:12:04;99904.34;;;15.33;100.00
33075;BME280;19433;51.292;6.868;2023-07-31T03:14:29;99913.91;;;15.37;100.00
33075;BME280;19433;51.292;6.868;2023-07-31T03:16:55;99895.75;;;15.35;100.00
33075;BME280;19433;51.292;6.868;2023-07-31T03:19:20;99900.84;;;15.38;100.00
33075;BME280;19433;51.292;6.868;2023-07-31T03:21:45;99904.28;;;15.45;100.00
33075;BME280;19433;51.292;6.868;2023-07-31T03:24:11;99903.91;;;15.53;100.00
33075;BME280;19433;51.292;6.868;2023-07-31T03:26:37;99907.59;;;15.42;100.00
33075;BME280;19433;51.292;6.868;2023-07-31T03:29:02;99904.75;;;15.54;100.00
33075;BME280;19433;51.292;6.868;2023-07-31T03:31:28;99910.31;;;15.54;100.00
33075;BME280;19433;51.292;6.868;2023-07-31T03:33:53;99909.22;;;15.55;100.00
33075;BME280;19433;51.292;6.868;2023-07-31T03:36:18;99907.06;;;15.57;100.00
33075;BME280;19433;51.292;6.868;2023-07-31T03:38:43;99904.28;;;15.57;100.00
33075;BME280;19433;51.292;6.868;2023-07-31T03:41:09;99907.97;;;15.62;100.00
33075;BME280;19433;51.292;6.868;2023-07-31T03:43:35;99904.03;;;15.58;100.00
33075;BME280;19433;51.292;6.868;2023-07-31T03:46:01;99891.78;;;15.59;100.00
33075;BME280;19433;51.292;6.868;2023-07-31T03:48:27;99891.88;;;15.64;100.00
33075;BME280;19433;51.292;6.868;2023-07-31T03:50:53;99878.28;;;15.68;100.00
33075;BME280;19433;51.292;6.868;2023-07-31T03:53:18;99888.09;;;15.70;100.00
33075;BME280;19433;51.292;6.868;2023-07-31T03:55:43;99890.28;;;15.68;100.00
33075;BME280;19433;51.292;6.868;2023-07-31T03:58:08;99893.66;;;15.70;100.00
33075;BME280;19433;51.292;6.868;2023-07-31T04:00:34;99884.72;;;15.68;100.00
33075;BME280;19433;51.292;6.868;2023-07-31T04:02:59;99888.41;;;15.74;100.00
33075;BME280;19433;51.292;6.868;2023-07-31T04:05:25;99890.38;;;15.73;100.00
33075;BME280;19433;51.292;6.868;2023-07-31T04:07:51;99887.25;;;15.87;100.00
33075;BME280;19433;51.292;6.868;2023-07-31T04:10:16;99872.13;;;15.82;100.00
33075;BME280;19433;51.292;6.868;2023-07-31T04:12:42;99875.91;;;15.76;100.00
33075;BME280;19433;51.292;6.868;2023-07-31T04:15:07;99876.94;;;15.87;100.00
33075;BME280;19433;51.292;6.868;2023-07-31T04:17:32;99881.59;;;15.81;100.00
33075;BME280;19433;51.292;6.868;2023-07-31T04:19:58;99879.16;;;15.85;100.00
33075;BME280;19433;51.292;6.868;2023-07-31T04:22:23;99871.94;;;15.89;100.00
33075;BME280;19433;51.292;6.868;2023-07-31T04:24:48;99873.91;;;15.89;100.00
33075;BME280;19433;51.292;6.868;2023-07-31T04:27:14;99870.09;;;15.78;100.00
33075;BME280;19433;51.292;6.868;2023-07-31T04:29:39;99864.78;;;15.76;100.00
33075;BME280;19433;51.292;6.868;2023-07-31T04:32:07;99871.63;;;15.86;100.00
33075;BME280;19433;51.292;6.868;2023-07-31T04:34:32;99867.66;;;15.81;100.00
33075;BME280;19433;51.292;6.868;2023-07-31T04:36:57;99854.41;;;15.89;100.00
33075;BME280;19433;51.292;6.868;2023-07-31T04:39:23;99859.03;;;15.83;100.00
33075;BME280;19433;51.292;6.868;2023-07-31T04:41:48;99846.47;;;15.80;100.00
33075;BME280;19433;51.292;6.868;2023-07-31T04:44:14;99858.22;;;15.82;100.00
33075;BME280;19433;51.292;6.868;2023-07-31T04:46:39;99857.25;;;15.94;100.00
33075;BME280;19433;51.292;6.868;2023-07-31T04:49:04;99855.16;;;16.01;100.00
33075;BME280;19433;51.292;6.868;2023-07-31T04:51:29;99854.72;;;16.09;100.00
33075;BME280;19433;51.292;6.868;2023-07-31T04:53:56;99851.78;;;15.99;100.00
33075;BME280;19433;51.292;6.868;2023-07-31T04:56:21;99851.19;;;15.97;100.00
33075;BME280;19433;51.292;6.868;2023-07-31T04:58:47;99842.56;;;15.98;100.00
33075;BME280;19433;51.292;6.868;2023-07-31T05:01:12;99835.06;;;15.99;100.00
33075;BME280;19433;51.292;6.868;2023-07-31T05:03:37;99837.63;;;16.22;100.00
33075;BME280;19433;51.292;6.868;2023-07-31T05:06:03;99827.22;;;16.34;100.00
33075;BME280;19433;51.292;6.868;2023-07-31T05:08:28;99839.41;;;16.50;100.00
33075;BME280;19433;51.292;6.868;2023-07-31T05:10:53;99832.88;;;16.61;100.00
33075;BME280;19433;51.292;6.868;2023-07-31T05:13:18;99821.00;;;16.49;100.00
33075;BME280;19433;51.292;6.868;2023-07-31T05:15:44;99810.63;;;16.44;100.00
33075;BME280;19433;51.292;6.868;2023-07-31T05:18:10;99810.63;;;16.66;100.00
33075;BME280;19433;51.292;6.868;2023-07-31T05:20:35;99809.91;;;16.54;100.00
33075;BME280;19433;51.292;6.868;2023-07-31T05:23:00;99816.53;;;16.48;100.00
33075;BME280;19433;51.292;6.868;2023-07-31T05:25:26;99805.91;;;16.67;100.00
33075;BME280;19433;51.292;6.868;2023-07-31T05:27:51;99808.22;;;16.53;100.00
33075;BME280;19433;51.292;6.868;2023-07-31T05:30:16;99801.50;;;16.49;100.00
33075;BME280;19433;51.292;6.868;2023-07-31T05:32:41;99805.75;;;16.57;100.00
33075;BME280;19433;51.292;6.868;2023-07-31T05:35:07;99802.59;;;16.48;100.00
33075;BME280;19433;51.292;6.868;2023-07-31T05:37:32;99805.94;;;16.50;100.00
33075;BME280;19433;51.292;6.868;2023-07-31T05:39:58;99800.44;;;16.55;100.00
33075;BME280;19433;51.292;6.868;2023-07-31T05:42:23;99788.69;;;16.53;100.00
33075;BME280;19433;51.292;6.868;2023-07-31T05:44:48;99791.72;;;16.51;100.00
33075;BME280;19433;51.292;6.868;2023-07-31T05:47:13;99785.22;;;16.63;100.00
33075;BME280;19433;51.292;6.868;2023-07-31T05:49:39;99780.72;;;16.62;100.00
33075;BME280;19433;51.292;6.868;2023-07-31T05:52:04;99781.91;;;16.66;100.00
33075;BME280;19433;51.292;6.868;2023-07-31T05:54:32;99786.97;;;16.69;100.00
33075;BME280;19433;51.292;6.868;2023-07-31T05:56:58;99780.28;;;16.70;100.00
33075;BME280;19433;51.292;6.868;2023-07-31T05:59:23;99778.56;;;16.64;100.00
33075;BME280;19433;51.292;6.868;2023-07-31T06:01:48;99778.72;;;16.79;100.00
33075;BME280;19433;51.292;6.868;2023-07-31T06:04:13;99772.06;;;16.85;100.00
33075;BME280;19433;51.292;6.868;2023-07-31T06:06:39;99769.53;;;16.83;100.00
33075;BME280;19433;51.292;6.868;2023-07-31T06:09:04;99774.19;;;16.73;100.00
33075;BME280;19433;51.292;6.868;2023-07-31T06:11:30;99773.53;;;16.66;100.00
33075;BME280;19433;51.292;6.868;2023-07-31T06:13:55;99776.59;;;16.64;100.00
33075;BME280;19433;51.292;6.868;2023-07-31T06:16:20;99768.22;;;16.42;100.00
33075;BME280;19433;51.292;6.868;2023-07-31T06:18:46;99771.84;;;16.43;100.00
33075;BME280;19433;51.292;6.868;2023-07-31T06:21:12;99774.88;;;16.41;100.00
33075;BME280;19433;51.292;6.868;2023-07-31T06:23:37;99776.13;;;16.29;100.00
33075;BME280;19433;51.292;6.868;2023-07-31T06:26:02;99772.66;;;16.22;100.00
33075;BME280;19433;51.292;6.868;2023-07-31T06:28:28;99774.66;;;16.04;100.00
33075;BME280;19433;51.292;6.868;2023-07-31T06:30:57;99777.44;;;16.04;100.00
33075;BME280;19433;51.292;6.868;2023-07-31T06:33:23;99771.69;;;16.11;100.00
33075;BME280;19433;51.292;6.868;2023-07-31T06:35:48;99775.63;;;15.93;100.00
33075;BME280;19433;51.292;6.868;2023-07-31T06:38:13;99773.00;;;16.03;100.00
33075;BME280;19433;51.292;6.868;2023-07-31T06:40:39;99769.47;;;15.91;100.00
33075;BME280;19433;51.292;6.868;2023-07-31T06:43:05;99773.78;;;15.82;100.00
33075;BME280;19433;51.292;6.868;2023-07-31T06:45:36;99779.53;;;15.75;100.00
33075;BME280;19433;51.292;6.868;2023-07-31T06:48:02;99774.16;;;15.69;100.00
33075;BME280;19433;51.292;6.868;2023-07-31T06:50:29;99760.81;;;15.71;100.00
33075;BME280;19433;51.292;6.868;2023-07-31T06:52:54;99773.66;;;15.72;100.00
33075;BME280;19433;51.292;6.868;2023-07-31T06:55:20;99773.34;;;15.90;100.00
33075;BME280;19433;51.292;6.868;2023-07-31T06:57:48;99779.09;;;16.00;100.00
33075;BME280;19433;51.292;6.868;2023-07-31T07:00:14;99783.13;;;15.93;100.00
33075;BME280;19433;51.292;6.868;2023-07-31T07:02:39;99789.41;;;15.83;100.00
33075;BME280;19433;51.292;6.868;2023-07-31T07:05:06;99779.97;;;15.84;100.00
33075;BME280;19433;51.292;6.868;2023-07-31T07:07:32;99778.59;;;15.87;100.00
33075;BME280;19433;51.292;6.868;2023-07-31T07:09:57;99770.34;;;15.75;100.00
33075;BME280;19433;51.292;6.868;2023-07-31T07:12:24;99763.66;;;15.76;100.00
33075;BME280;19433;51.292;6.868;2023-07-31T07:14:50;99761.97;;;15.75;100.00
33075;BME280;19433;51.292;6.868;2023-07-31T07:17:15;99769.72;;;15.90;100.00
33075;BME280;19433;51.292;6.868;2023-07-31T07:19:40;99769.31;;;15.81;100.00
33075;BME280;19433;51.292;6.868;2023-07-31T07:22:07;99770.50;;;15.85;100.00
33075;BME280;19433;51.292;6.868;2023-07-31T07:24:33;99758.63;;;15.73;100.00
33075;BME280;19433;51.292;6.868;2023-07-31T07:26:58;99759.09;;;15.87;100.00
33075;BME280;19433;51.292;6.868;2023-07-31T07:29:23;99759.47;;;15.73;100.00
33075;BME280;19433;51.292;6.868;2023-07-31T07:31:49;99768.25;;;15.65;100.00
33075;BME280;19433;51.292;6.868;2023-07-31T07:34:14;99752.97;;;15.68;100.00
33075;BME280;19433;51.292;6.868;2023-07-31T07:36:39;99755.16;;;15.66;100.00
33075;BME280;19433;51.292;6.868;2023-07-31T07:39:04;99760.22;;;15.69;100.00
33075;BME280;19433;51.292;6.868;2023-07-31T07:41:30;99760.28;;;15.74;100.00
33075;BME280;19433;51.292;6.868;2023-07-31T07:43:55;99757.84;;;15.77;100.00
33075;BME280;19433;51.292;6.868;2023-07-31T07:46:20;99768.47;;;15.80;100.00
33075;BME280;19433;51.292;6.868;2023-07-31T07:48:46;99767.47;;;15.87;100.00
33075;BME280;19433;51.292;6.868;2023-07-31T07:51:11;99760.97;;;15.81;100.00
33075;BME280;19433;51.292;6.868;2023-07-31T07:53:36;99763.66;;;15.76;100.00
33075;BME280;19433;51.292;6.868;2023-07-31T07:56:01;99761.97;;;15.75;100.00
33075;BME280;19433;51.292;6.868;2023-07-31T07:58:27;99752.44;;;15.88;100.00
33075;BME280;19433;51.292;6.868;2023-07-31T08:00:52;99749.44;;;15.94;100.00
33075;BME280;19433;51.292;6.868;2023-07-31T08:03:18;99754.94;;;15.89;100.00
33075;BME280;19433;51.292;6.868;2023-07-31T08:05:43;99752.88;;;15.79;100.00
33075;BME280;19433;51.292;6.868;2023-07-31T08:08:14;99755.63;;;15.96;100.00
33075;BME280;19433;51.292;6.868;2023-07-31T08:10:40;99753.66;;;15.97;100.00
33075;BME280;19433;51.292;6.868;2023-07-31T08:13:05;99751.72;;;15.97;100.00
33075;BME280;19433;51.292;6.868;2023-07-31T08:15:30;99743.72;;;16.01;100.00
33075;BME280;19433;51.292;6.868;2023-07-31T08:17:56;99744.75;;;16.16;100.00
33075;BME280;19433;51.292;6.868;2023-07-31T08:20:21;99736.31;;;16.11;100.00
33075;BME280;19433;51.292;6.868;2023-07-31T08:22:46;99726.75;;;16.02;100.00
33075;BME280;19433;51.292;6.868;2023-07-31T08:25:11;99716.81;;;16.11;100.00
33075;BME280;19433;51.292;6.868;2023-07-31T08:27:37;99725.44;;;16.10;100.00
33075;BME280;19433;51.292;6.868;2023-07-31T08:30:02;99722.50;;;16.00;100.00
33075;BME280;19433;51.292;6.868;2023-07-31T08:32:28;99722.91;;;16.08;100.00
33075;BME280;19433;51.292;6.868;2023-07-31T08:34:53;99720.69;;;16.10;100.00
33075;BME280;19433;51.292;6.868;2023-07-31T08:37:18;99721.63;;;16.16;100.00
33075;BME280;19433;51.292;6.868;2023-07-31T08:39:43;99714.75;;;16.02;100.00
33075;BME280;19433;51.292;6.868;2023-07-31T08:42:09;99728.88;;;16.17;100.00
33075;BME280;19433;51.292;6.868;2023-07-31T08:44:35;99723.41;;;16.05;100.00
33075;BME280;19433;51.292;6.868;2023-07-31T08:47:00;99715.75;;;15.96;100.00
33075;BME280;19433;51.292;6.868;2023-07-31T08:49:27;99713.75;;;15.91;100.00
33075;BME280;19433;51.292;6.868;2023-07-31T08:51:53;99720.41;;;15.90;100.00
33075;BME280;19433;51.292;6.868;2023-07-31T08:54:20;99728.34;;;15.98;100.00
33075;BME280;19433;51.292;6.868;2023-07-31T08:56:46;99720.13;;;15.87;100.00
33075;BME280;19433;51.292;6.868;2023-07-31T08:59:12;99723.00;;;15.75;100.00
33075;BME280;19433;51.292;6.868;2023-07-31T09:01:43;99728.56;;;15.75;100.00
33075;BME280;19433;51.292;6.868;2023-07-31T09:04:12;99725.84;;;15.80;100.00
33075;BME280;19433;51.292;6.868;2023-07-31T09:06:39;99725.97;;;15.68;100.00
33075;BME280;19433;51.292;6.868;2023-07-31T09:09:04;99734.84;;;15.65;100.00
33075;BME280;19433;51.292;6.868;2023-07-31T09:11:30;99718.38;;;15.64;100.00
33075;BME280;19433;51.292;6.868;2023-07-31T09:13:57;99724.16;;;15.79;100.00
33075;BME280;19433;51.292;6.868;2023-07-31T09:16:28;99730.66;;;16.06;100.00
33075;BME280;19433;51.292;6.868;2023-07-31T09:18:57;99723.94;;;16.24;100.00
33075;BME280;19433;51.292;6.868;2023-07-31T09:21:24;99713.69;;;16.08;100.00
33075;BME280;19433;51.292;6.868;2023-07-31T09:23:49;99718.16;;;16.09;100.00
33075;BME280;19433;51.292;6.868;2023-07-31T09:26:36;99722.91;;;16.08;100.00
33075;BME280;19433;51.292;6.868;2023-07-31T09:29:06;99724.06;;;16.12;100.00
33075;BME280;19433;51.292;6.868;2023-07-31T09:31:33;99726.34;;;16.15;100.00
33075;BME280;19433;51.292;6.868;2023-07-31T09:34:03;99717.72;;;15.95;100.00
33075;BME280;19433;51.292;6.868;2023-07-31T09:36:31;99713.50;;;15.93;100.00
33075;BME280;19433;51.292;6.868;2023-07-31T09:39:01;99718.03;;;15.99;100.00
33075;BME280;19433;51.292;6.868;2023-07-31T09:41:27;99709.88;;;16.14;100.00
33075;BME280;19433;51.292;6.868;2023-07-31T09:43:55;99698.91;;;16.07;100.00
33075;BME280;19433;51.292;6.868;2023-07-31T09:46:21;99698.72;;;16.14;100.00
33075;BME280;19433;51.292;6.868;2023-07-31T09:48:46;99706.31;;;16.18;100.00
33075;BME280;19433;51.292;6.868;2023-07-31T09:51:12;99705.75;;;16.16;100.00
33075;BME280;19433;51.292;6.868;2023-07-31T09:53:37;99705.59;;;16.28;100.00
33075;BME280;19433;51.292;6.868;2023-07-31T09:56:03;99697.31;;;16.11;100.00
33075;BME280;19433;51.292;6.868;2023-07-31T09:58:34;99700.28;;;16.05;100.00
33075;BME280;19433;51.292;6.868;2023-07-31T10:01:01;99693.16;;;16.14;100.00
33075;BME280;19433;51.292;6.868;2023-07-31T10:03:27;99702.81;;;16.06;100.00
33075;BME280;19433;51.292;6.868;2023-07-31T10:05:55;99700.94;;;16.12;100.00
33075;BME280;19433;51.292;6.868;2023-07-31T10:08:23;99697.50;;;16.27;100.00
33075;BME280;19433;51.292;6.868;2023-07-31T10:10:51;99693.09;;;16.09;100.00
33075;BME280;19433;51.292;6.868;2023-07-31T10:13:17;99703.66;;;16.07;100.00
33075;BME280;19433;51.292;6.868;2023-07-31T10:15:44;99691.66;;;16.06;100.00
33075;BME280;19433;51.292;6.868;2023-07-31T10:18:10;99691.03;;;15.99;100.00
33075;BME280;19433;51.292;6.868;2023-07-31T10:20:36;99693.09;;;16.09;100.00
33075;BME280;19433;51.292;6.868;2023-07-31T10:23:02;99697.69;;;15.98;100.00
33075;BME280;19433;51.292;6.868;2023-07-31T10:25:29;99699.06;;;15.96;100.00
33075;BME280;19433;51.292;6.868;2023-07-31T10:27:57;99701.91;;;16.01;100.00
33075;BME280;19433;51.292;6.868;2023-07-31T10:30:25;99698.06;;;16.07;100.00
33075;BME280;19433;51.292;6.868;2023-07-31T10:32:52;99696.03;;;16.19;100.00
33075;BME280;19433;51.292;6.868;2023-07-31T10:35:18;99694.97;;;16.25;100.00
33075;BME280;19433;51.292;6.868;2023-07-31T10:37:44;99691.91;;;16.27;100.00
33075;BME280;19433;51.292;6.868;2023-07-31T10:40:12;99691.41;;;16.30;100.00
33075;BME280;19433;51.292;6.868;2023-07-31T10:42:49;99687.28;;;16.37;100.00
33075;BME280;19433;51.292;6.868;2023-07-31T10:47:58;99691.59;;;16.72;100.00
33075;BME280;19433;51.292;6.868;2023-07-31T10:50:24;99687.53;;;16.84;100.00
33075;BME280;19433;51.292;6.868;2023-07-31T10:52:51;99688.78;;;16.99;100.00
33075;BME280;19433;51.292;6.868;2023-07-31T10:55:30;99691.19;;;17.17;100.00
33075;BME280;19433;51.292;6.868;2023-07-31T11:00:31;99682.47;;;17.08;100.00
33075;BME280;19433;51.292;6.868;2023-07-31T11:08:17;99680.38;;;16.94;100.00
33075;BME280;19433;51.292;6.868;2023-07-31T11:10:44;99681.94;;;16.79;100.00
33075;BME280;19433;51.292;6.868;2023-07-31T11:13:10;99678.28;;;16.79;100.00
33075;BME280;19433;51.292;6.868;2023-07-31T11:15:35;99673.25;;;16.81;100.00
33075;BME280;19433;51.292;6.868;2023-07-31T11:18:01;99664.16;;;16.91;100.00
33075;BME280;19433;51.292;6.868;2023-07-31T11:20:36;99676.50;;;17.00;100.00
33075;BME280;19433;51.292;6.868;2023-07-31T11:23:05;99684.69;;;17.11;100.00
33075;BME280;19433;51.292;6.868;2023-07-31T11:25:31;99689.16;;;17.07;100.00
33075;BME280;19433;51.292;6.868;2023-07-31T11:28:03;99687.09;;;16.98;100.00
33075;BME280;19433;51.292;6.868;2023-07-31T11:30:28;99684.69;;;17.06;100.00
33075;BME280;19433;51.292;6.868;2023-07-31T11:32:55;99693.88;;;17.07;100.00
33075;BME280;19433;51.292;6.868;2023-07-31T11:35:20;99680.28;;;17.15;100.00
33075;BME280;19433;51.292;6.868;2023-07-31T11:37:46;99674.22;;;17.23;100.00
33075;BME280;19433;51.292;6.868;2023-07-31T11:40:11;99671.22;;;17.35;100.00
33075;BME280;19433;51.292;6.868;2023-07-31T11:42:37;99669.00;;;17.37;100.00
33075;BME280;19433;51.292;6.868;2023-07-31T11:45:06;99666.53;;;17.41;100.00
33075;BME280;19433;51.292;6.868;2023-07-31T11:47:33;99677.13;;;17.39;100.00
33075;BME280;19433;51.292;6.868;2023-07-31T11:50:00;99667.66;;;17.45;100.00
33075;BME280;19433;51.292;6.868;2023-07-31T11:52:27;99668.28;;;17.57;100.00
33075;BME280;19433;51.292;6.868;2023-07-31T11:54:54;99667.59;;;17.77;100.00
33075;BME280;19433;51.292;6.868;2023-07-31T11:57:20;99658.41;;;17.81;100.00
33075;BME280;19433;51.292;6.868;2023-07-31T11:59:45;99666.25;;;17.84;100.00
33075;BME280;19433;51.292;6.868;2023-07-31T12:02:11;99662.50;;;17.64;100.00
33075;BME280;19433;51.292;6.868;2023-07-31T12:04:36;99655.06;;;17.42;100.00
33075;BME280;19433;51.292;6.868;2023-07-31T12:07:02;99651.16;;;17.38;100.00
33075;BME280;19433;51.292;6.868;2023-07-31T12:09:27;99651.00;;;17.18;100.00
33075;BME280;19433;51.292;6.868;2023-07-31T12:11:52;99657.47;;;17.23;100.00
33075;BME280;19433;51.292;6.868;2023-07-31T12:14:25;99653.09;;;17.38;100.00
33075;BME280;19433;51.292;6.868;2023-07-31T12:19:22;99657.94;;;17.10;100.00
33075;BME280;19433;51.292;6.868;2023-07-31T12:21:47;99656.56;;;17.18;100.00
33075;BME280;19433;51.292;6.868;2023-07-31T12:24:13;99653.72;;;17.08;100.00
33075;BME280;19433;51.292;6.868;2023-07-31T12:26:38;99642.81;;;17.06;100.00
33075;BME280;19433;51.292;6.868;2023-07-31T12:29:07;99648.25;;;17.23;100.00
33075;BME280;19433;51.292;6.868;2023-07-31T12:31:33;99649.94;;;17.29;100.00
33075;BME280;19433;51.292;6.868;2023-07-31T12:33:59;99636.22;;;17.22;100.00
33075;BME280;19433;51.292;6.868;2023-07-31T12:36:24;99641.81;;;17.22;100.00
33075;BME280;19433;51.292;6.868;2023-07-31T12:38:51;99645.81;;;17.37;100.00
33075;BME280;19433;51.292;6.868;2023-07-31T12:41:17;99645.50;;;17.70;100.00
33075;BME280;19433;51.292;6.868;2023-07-31T12:43:43;99646.69;;;17.89;100.00
33075;BME280;19433;51.292;6.868;2023-07-31T12:46:09;99652.25;;;17.79;100.00
33075;BME280;19433;51.292;6.868;2023-07-31T12:48:35;99650.72;;;17.62;100.00
33075;BME280;19433;51.292;6.868;2023-07-31T12:51:01;99643.13;;;17.52;100.00
33075;BME280;19433;51.292;6.868;2023-07-31T12:53:27;99629.47;;;17.55;100.00
33075;BME280;19433;51.292;6.868;2023-07-31T12:55:55;99637.56;;;17.57;100.00
33075;BME280;19433;51.292;6.868;2023-07-31T12:58:20;99643.44;;;17.61;100.00
33075;BME280;19433;51.292;6.868;2023-07-31T13:00:45;99633.38;;;17.59;100.00